OK53 weather

KOTV Heliport
Tulsa, Oklahoma, United States

Public forecast

Using degrees Fahrenheit for public forecast. Weather courtesy of forecast.io.

METAR (pilot weather report)

Closest report is Tulsa International Airport, 5.6 nm (10.3 km) ENE. Retrieved 2019/04/23 23:29 UTC (6 seconds ago):

KTUL 232329Z 34009KT 10SM BKN013 BKN065 OVC250 17/14 A2994 RMK AO2 T01720139

TAF (pilot weather forecast)

Closest forecast is Tulsa International Airport, 5.6 nm (10.3 km) ENE. Retrieved 2019/04/23 18:22 UTC (5 hours ago):

TAF KTUL 231720Z 2318/2418 01006KT P6SM VCSH SCT015 BKN050 TEMPO 2318/2322 4SM RA BKN008 FM240100 01006KT P6SM OVC015 FM240700 34005KT P6SM BKN010 FM241400 35006KT P6SM BKN015